Latest Weather Observations for Bathurst Airport

IDN60801

Issued at 10:33 pm EDT Monday 22 December 2014 (issued every 30 minutes, with the page automatically refreshed every 10 minutes)

About weather observations | Map of weather stations | Latest weather observations for NSW | Other Formats
Station Details ID: 063291 Name: BATHURST AIRPORT AWS Lat: -33.41 Lon: 149.65 Height: 744.5 m
Data from the previous 72 hours. | See also: Recent months for locations in New South Wales
Date/Time
EDT
Temp
°C
App
Temp
°C
Dew
Point
Rel
Hum
%
Delta-T
°C
Wind Press
QNH
hPa
Press
MSL
hPa
Rain
since 9 am
mm
Dir
 
Spd
km/h
Gust
km/h
Spd
kts
Gust
kts
22/10:30pm 19.5 18.4 13.0 66 3.8 W 11 17 6 9 1017.3 1014.2 1.0
22/10:00pm 20.4 20.6 11.9 58 4.9 NNW 2 7 1 4 1016.5 1013.3 1.0
22/09:30pm 20.8 18.2 12.0 57 5.1 NE 17 24 9 13 1016.6 1013.4 1.0
22/09:00pm 20.8 17.2 11.7 56 5.2 NE 22 30 12 16 1016.6 1013.4 1.0
22/08:30pm 20.9 16.6 13.1 61 4.6 NE 28 39 15 21 1016.8 1013.7 1.0
22/08:00pm 21.2 17.6 14.1 64 4.3 ENE 26 35 14 19 1016.6 1013.4 1.0
22/07:30pm 21.7 18.0 13.9 61 4.7 NE 26 35 14 19 1016.6 1013.4 1.0
22/07:00pm 21.8 18.6 13.2 58 5.1 NE 22 32 12 17 1016.4 1013.2 1.0
22/06:30pm 22.2 18.7 13.5 57 5.2 ENE 24 37 13 20 1016.5 1013.3 1.0
22/06:00pm 22.1 18.5 14.2 61 4.8 NE 26 33 14 18 1016.2 1013.0 1.0
22/05:30pm 23.2 20.3 13.9 56 5.6 ENE 22 30 12 16 1016.2 1013.0 1.0
22/05:00pm 23.6 20.6 13.8 54 5.9 E 22 32 12 17 1016.2 1013.0 1.0
22/04:30pm 22.6 21.6 16.6 69 3.8 ESE 17 26 9 14 1016.5 1013.3 1.0
22/04:00pm 19.9 18.3 16.5 81 2.1 ESE 20 30 11 16 1016.8 1013.7 1.0
22/03:30pm 19.7 17.0 15.6 77 2.5 SE 24 35 13 19 1017.3 1014.2 0.4
22/03:19pm 20.3 16.6 14.9 71 3.3 SE 28 43 15 23 1016.9 1013.8 0.4
22/03:05pm 20.0 15.0 14.1 69 3.5 SSE 33 46 18 25 1016.3 1013.1 0.4
22/03:00pm 21.3 15.4 13.7 62 4.5 SSE 37 56 20 30 1016.6 1013.4 0.0
22/02:52pm 24.2 19.5 11.9 46 7.2 SSE 28 56 15 30 1016.5 1013.3 0.0
22/02:51pm 25.5 21.1 13.0 46 7.5 SSE 28 39 15 21 1016.5 1013.3 0.0
22/02:30pm 27.8 25.6 10.9 35 9.9 N 13 22 7 12 1016.3 1013.1 0.0
22/02:00pm 31.0 26.7 10.9 29 11.9 NNW 24 39 13 21 1016.1 1012.9 0.0
22/01:30pm 30.8 26.7 10.2 28 12.1 NNW 22 30 12 16 1016.5 1013.3 0.0
22/01:00pm 30.1 26.8 11.6 32 11.1 N 20 32 11 17 1017.0 1013.9 0.0
22/12:30pm 30.2 27.8 13.9 37 10.1 NNW 19 30 10 16 1017.5 1014.3 0.0
22/12:00pm 29.9 27.7 14.4 38 9.7 N 19 32 10 17 1018.3 1015.2 0.0
22/11:30am 28.0 25.1 13.9 42 8.7 N 22 28 12 15 1018.7 1015.6 0.0
22/11:00am 27.9 26.6 15.9 48 7.6 NNW 17 24 9 13 1018.7 1015.6 0.0
22/10:30am 26.8 24.8 14.9 48 7.4 N 19 28 10 15 1019.1 1015.9 0.0
22/10:00am 25.2 23.1 14.6 51 6.5 N 19 24 10 13 1019.2 1016.0 0.0
22/09:30am 24.0 21.2 14.4 55 5.9 NNW 22 28 12 15 1019.3 1016.2 0.0
22/08:30am 22.8 22.4 13.0 54 5.8 NNW 7 15 4 8 1019.4 1016.3 0.0
22/08:00am 21.2 22.2 13.1 60 4.8 CALM 0 0 0 0 1019.0 1015.8 0.0
22/07:30am 18.9 18.9 14.2 74 2.8 ENE 7 9 4 5 1018.7 1015.6 0.0
22/07:00am 16.6 17.9 14.2 86 1.4 CALM 0 2 0 1 1018.5 1015.4 0.0
22/06:30am 15.1 14.9 14.8 98 0.2 WSW 9 11 5 6 1018.4 1015.3 0.0
22/06:00am 15.0 14.8 12.9 87 1.2 SE 6 11 3 6 1017.6 1014.4 0.0
22/05:30am 16.0 16.1 15.5 97 0.3 SE 9 11 5 6 1017.2 1014.1 0.0
22/05:00am 15.0 16.1 13.5 91 0.9 CALM 0 0 0 0 1017.1 1014.0 0.0
22/04:30am 15.7 17.0 14.2 91 0.9 CALM 0 0 0 0 1017.0 1013.9 0.0
22/04:00am 16.4 16.9 14.9 91 0.9 SW 6 6 3 3 1016.9 1013.8 0.0
22/03:30am 16.4 17.6 13.9 85 1.5 CALM 0 6 0 3 1017.0 1013.9 0.0
22/02:30am 17.6 17.4 14.7 83 1.7 SE 9 9 5 5 1017.3 1014.2 0.0
22/02:00am 18.2 18.2 14.3 78 2.3 SE 7 9 4 5 1017.7 1014.5 0.0
22/01:30am 18.5 18.1 14.2 76 2.6 SE 9 13 5 7 1017.8 1014.6 0.0
22/01:00am 18.9 19.2 13.5 71 3.2 S 4 7 2 4 1018.0 1014.8 0.0
22/12:37am 19.0 18.9 13.4 70 3.3 SW 6 9 3 5 1018.0 1014.8 0.0
22/12:30am 18.3 17.8 12.5 69 3.3 SW 7 9 4 5 1018.1 1015.0 0.0
22/12:18am 19.0 19.0 12.5 66 3.8 WSW 4 11 2 6 1018.2 1015.1 0.0
22/12:00am 20.0 19.6 13.0 64 4.1 E 7 13 4 7 1018.1 1015.0 0.0
 
Date/Time
EDT
Temp
°C
App
Temp
°C
Dew
Point
Rel
Hum
%
Delta-T
°C
Wind Press
QNH
hPa
Press
MSL
hPa
Rain
since 9 am
mm
Dir
 
Spd
km/h
Gust
km/h
Spd
kts
Gust
kts
21/11:30pm 19.7 19.0 12.0 61 4.4 NE 7 9 4 5 1017.7 1014.5 0.0
21/11:00pm 20.8 19.6 12.8 60 4.7 N 11 20 6 11 1017.9 1014.7 0.0
21/10:30pm 21.6 18.3 12.7 57 5.2 ENE 22 30 12 16 1017.0 1013.9 0.0
21/10:00pm 22.1 18.5 10.6 48 6.5 ENE 20 28 11 15 1016.9 1013.8 0.0
21/09:30pm 21.8 18.9 8.0 41 7.5 ESE 13 17 7 9 1016.9 1013.8 0.0
21/09:00pm 21.1 17.6 7.0 40 7.5 ENE 15 17 8 9 1016.6 1013.4 0.0
21/08:30pm 21.7 19.3 7.2 39 7.7 NNE 9 9 5 5 1016.6 1013.4 0.0
21/08:00pm 23.2 19.9 6.5 34 8.9 NNE 13 15 7 8 1016.4 1013.2 0.0
21/07:30pm 26.8 24.1 5.7 26 11.3 NNE 9 13 5 7 1015.8 1012.7 0.0
21/07:00pm 28.0 24.2 5.6 24 12.0 NNE 15 20 8 11 1015.6 1012.5 0.0
21/06:30pm 28.6 25.1 5.5 23 12.4 N 13 17 7 9 1015.4 1012.2 0.0
21/06:00pm 28.9 26.2 5.7 23 12.6 NNW 9 13 5 7 1015.5 1012.3 0.0
21/05:30pm 29.2 25.7 7.2 25 12.2 NNW 15 24 8 13 1015.7 1012.6 0.0
21/05:00pm 29.5 25.5 6.8 24 12.5 NW 17 26 9 14 1016.2 1013.0 0.0
21/04:30pm 29.6 25.7 6.9 24 12.6 N 17 24 9 13 1016.3 1013.1 0.0
21/04:00pm 29.8 26.4 7.7 25 12.4 NNE 15 20 8 11 1016.6 1013.4 0.0
21/03:30pm 28.4 25.9 6.5 25 12.0 W 9 15 5 8 1016.9 1013.8 0.0
21/03:00pm 29.0 26.6 8.7 28 11.5 NNW 11 20 6 11 1017.2 1014.1 0.0
21/02:30pm 27.4 24.6 5.1 24 11.9 SSW 9 19 5 10 1017.5 1014.3 0.0
21/02:00pm 27.8 25.5 7.6 28 11.2 SSE 9 15 5 8 1017.9 1014.7 0.0
21/01:30pm 28.1 24.6 7.4 27 11.5 W 15 22 8 12 1018.1 1015.0 0.0
21/01:00pm 25.8 22.5 6.4 29 10.4 N 13 26 7 14 1018.6 1015.5 0.0
21/12:30pm 26.0 24.7 9.8 36 9.3 S 7 20 4 11 1018.9 1015.7 0.0
21/12:00pm 26.8 23.6 10.1 35 9.6 NNW 17 28 9 15 1019.4 1016.3 0.0
21/11:30am 25.4 21.7 8.0 33 9.6 N 17 24 9 13 1019.4 1016.3 0.0
21/11:00am 25.0 20.8 7.6 33 9.5 N 19 26 10 14 1019.3 1016.2 0.0
21/10:30am 24.2 21.0 8.6 37 8.7 N 15 24 8 13 1019.1 1015.9 0.0
21/10:00am 22.9 19.7 7.0 36 8.5 N 13 20 7 11 1019.3 1016.2 0.0
21/09:30am 21.8 20.4 9.7 46 6.8 NNE 7 11 4 6 1019.4 1016.3 0.0
21/09:00am 20.2 18.6 8.8 48 6.2 N 7 13 4 7 1019.6 1016.5 0.0
21/08:30am 18.4 17.4 8.9 54 5.1 WNW 4 11 2 6 1019.7 1016.6 0.0
21/08:00am 17.0 15.8 9.4 61 4.1 W 6 7 3 4 1019.4 1016.3 0.0
21/07:30am 15.2 15.4 10.6 74 2.5 CALM 0 0 0 0 1019.3 1016.2 0.0
21/07:00am 13.1 13.3 10.5 84 1.4 CALM 0 0 0 0 1019.1 1015.9 0.0
21/06:30am 11.6 10.9 10.2 91 0.7 W 4 6 2 3 1019.0 1015.8 0.0
21/06:00am 10.9 10.8 9.5 91 0.7 CALM 0 7 0 4 1018.6 1015.5 0.0
21/05:30am 12.3 12.0 8.6 78 1.9 CALM 0 0 0 0 1018.2 1015.1 0.0
21/05:00am 12.4 10.5 8.9 79 1.8 E 9 11 5 6 1018.1 1015.0 0.0
21/04:30am 11.9 10.3 8.0 77 2.0 ENE 6 7 3 4 1018.1 1015.0 0.0
21/04:00am 13.2 11.2 8.5 73 2.4 E 9 13 5 7 1017.9 1014.7 0.0
21/03:30am 13.8 11.0 8.6 71 2.7 ENE 13 15 7 8 1017.9 1014.7 0.0
21/03:00am 13.9 11.6 9.1 73 2.5 ENE 11 13 6 7 1017.9 1014.7 0.0
21/02:30am 14.2 11.7 9.6 74 2.5 E 13 17 7 9 1018.0 1014.8 0.0
21/02:00am 14.9 11.9 10.5 75 2.4 E 17 20 9 11 1018.2 1015.1 0.0
21/01:30am 15.1 12.5 10.7 75 2.4 E 15 17 8 9 1018.4 1015.3 0.0
21/01:00am 15.3 13.2 11.1 76 2.3 E 13 17 7 9 1018.6 1015.5 0.0
21/12:30am 15.6 13.5 11.2 75 2.4 E 13 17 7 9 1018.9 1015.7 0.0
21/12:00am 16.2 13.4 11.4 73 2.7 ENE 17 20 9 11 1019.0 1015.8 0.0
 
Date/Time
EDT
Temp
°C
App
Temp
°C
Dew
Point
Rel
Hum
%
Delta-T
°C
Wind Press
QNH
hPa
Press
MSL
hPa
Rain
since 9 am
mm
Dir
 
Spd
km/h
Gust
km/h
Spd
kts
Gust
kts
20/11:30pm 16.6 13.8 11.3 71 3.0 ENE 17 28 9 15 1019.2 1016.0 0.0
20/11:00pm 16.7 14.6 11.0 69 3.2 NE 13 19 7 10 1019.1 1015.9 0.0
20/10:30pm 17.1 15.6 10.7 66 3.6 ENE 9 17 5 9 1018.7 1015.6 0.0
20/10:00pm 17.7 14.4 10.8 64 3.8 E 19 30 10 16 1018.3 1015.2 0.0
20/09:30pm 18.6 15.5 10.2 58 4.7 E 17 24 9 13 1018.0 1014.8 0.0
20/09:00pm 19.4 16.0 9.0 51 5.7 E 17 20 9 11 1017.7 1014.5 0.0
20/08:30pm 20.5 17.5 9.1 48 6.3 ESE 15 20 8 11 1017.1 1014.0 0.0
20/08:00pm 22.0 18.4 8.5 42 7.4 E 17 24 9 13 1016.5 1013.3 0.0
20/07:30pm 25.1 22.2 2.5 23 11.3 SW 7 11 4 6 1015.9 1012.8 0.0
20/07:00pm 26.5 23.9 3.1 22 11.9 SW 6 9 3 5 1015.7 1012.6 0.0
20/06:30pm 26.9 25.6 5.8 26 11.3 WSW 2 9 1 5 1015.4 1012.2 0.0
20/06:00pm 26.4 23.1 4.8 25 11.4 SE 11 20 6 11 1015.1 1011.9 0.0
20/05:30pm 26.7 24.5 5.1 25 11.4 WNW 6 9 3 5 1015.1 1011.9 0.0
20/05:00pm 26.3 24.2 5.8 27 11.0 ESE 6 19 3 10 1015.2 1012.0 0.0
20/04:30pm 25.5 22.3 5.1 27 10.7 E 11 19 6 10 1015.4 1012.2 0.0
20/04:00pm 26.0 22.6 6.1 28 10.7 NE 13 19 7 10 1015.7 1012.6 0.0
20/03:30pm 25.6 23.2 5.2 27 10.7 NE 7 15 4 8 1016.3 1013.1 0.0
20/03:00pm 25.0 21.8 5.2 28 10.4 NNE 11 19 6 10 1016.5 1013.3 0.0
20/02:30pm 24.5 22.0 6.7 32 9.6 SSE 9 22 5 12 1016.9 1013.8 0.0
20/02:00pm 23.8 20.7 5.7 31 9.5 NNW 11 20 6 11 1017.1 1014.0 0.0
20/01:30pm 23.8 21.9 7.4 35 8.9 NE 7 11 4 6 1017.5 1014.3 0.0
20/01:00pm 23.2 20.5 5.6 32 9.2 WSW 9 15 5 8 1017.9 1014.7 0.0
20/12:30pm 22.2 19.1 5.6 34 8.6 NW 11 20 6 11 1018.3 1015.2 0.0
20/12:00pm 21.7 18.5 5.2 34 8.5 NW 11 17 6 9 1018.6 1015.5 0.0
20/11:30am 20.7 18.2 6.6 40 7.4 N 9 17 5 9 1019.0 1015.8 0.0
20/11:00am 20.2 17.7 6.5 41 7.1 N 9 20 5 11 1019.1 1015.9 0.0
20/10:30am 19.1 16.5 7.8 48 6.0 NNW 11 20 6 11 1019.1 1015.9 0.0
20/10:00am 18.7 16.1 7.8 49 5.8 NNE 11 17 6 9 1018.9 1015.7 0.0
20/09:30am 18.3 16.3 8.8 54 5.1 N 9 19 5 10 1019.0 1015.8 0.0
20/09:00am 16.6 14.2 7.0 53 4.9 N 9 17 5 9 1019.1 1015.9 0.0
20/08:30am 15.7 13.8 7.7 59 4.2 NNE 7 13 4 7 1019.1 1015.9 0.0
20/08:00am 14.2 12.9 7.5 64 3.4 N 4 9 2 5 1018.9 1015.7 0.0
20/07:30am 12.9 11.0 7.6 70 2.7 N 7 9 4 5 1018.6 1015.5 0.0
20/07:00am 12.3 10.1 7.8 74 2.3 ENE 9 13 5 7 1018.3 1015.2 0.0
20/06:30am 9.9 7.8 8.2 89 0.9 NE 9 11 5 6 1018.2 1015.1 0.0
20/06:00am 9.5 7.2 7.6 88 0.9 ENE 9 13 5 7 1018.0 1014.8 0.0
20/05:30am 9.5 6.9 7.8 89 0.8 ENE 11 15 6 8 1017.9 1014.7 0.0
20/05:00am 10.5 7.5 7.9 84 1.3 ENE 13 19 7 10 1017.8 1014.6 0.0
20/04:30am 10.2 7.3 8.1 87 1.1 ENE 13 17 7 9 1017.5 1014.3 0.0
20/04:00am 11.0 7.7 8.2 83 1.4 E 15 20 8 11 1017.2 1014.1 0.0
20/03:30am 10.9 8.0 8.3 84 1.3 ENE 13 20 7 11 1017.2 1014.1 0.0
20/03:00am 11.3 7.4 8.7 84 1.3 ENE 19 24 10 13 1017.2 1014.1 0.0
20/02:30am 10.3 8.5 8.1 86 1.1 NE 7 9 4 5 1017.5 1014.3 0.0
20/02:00am 10.7 8.3 8.5 86 1.1 ENE 11 13 6 7 1017.7 1014.5 0.0
20/01:30am 11.3 9.2 8.3 82 1.5 ENE 9 15 5 8 1017.9 1014.7 0.0
20/01:00am 11.8 10.1 8.5 80 1.7 ENE 7 13 4 7 1018.1 1015.0 0.0
20/12:30am 12.4 10.4 8.7 78 1.9 ESE 9 13 5 7 1018.3 1015.2 0.0
20/12:00am 12.6 9.8 8.7 77 2.0 ENE 13 17 7 9 1018.4 1015.3 0.0
 
Date/Time
EDT
Temp
°C
App
Temp
°C
Dew
Point
Rel
Hum
%
Delta-T
°C
Wind Press
QNH
hPa
Press
MSL
hPa
Rain
since 9 am
mm
Dir
 
Spd
km/h
Gust
km/h
Spd
kts
Gust
kts
19/11:30pm 12.9 9.7 8.4 74 2.3 E 15 20 8 11 1018.4 1015.3 0.0
19/11:00pm 13.5 11.0 8.4 71 2.6 ESE 11 17 6 9 1018.2 1015.1 0.0

Other Formats:

Comma delimited format used in spreadsheet applications
http://www.bom.gov.au/fwo/IDN60801/IDN60801.94729.axf

JavaScript Object Notation format (JSON) in row-major order
http://www.bom.gov.au/fwo/IDN60801/IDN60801.94729.json